Time;durP1;ratioP1;P1;durP2;ratioP2;P2;SDS_P1;SDS_P2;PMS_P1;PMS_P2;Temp;Humidity;BMP_temperature;BMP_pressure;BME280_temperature;BME280_humidity;BME280_pressure;Samples;Min_cycle;Max_cycle;Signal;HPM_P1;HPM_P2
2021/12/01 00:01:47;;;;;;;0.00;0.00;;;9.00;99.90;;;;;;5016162;28;20599;-75
2021/12/01 00:04:13;;;;;;;0.00;0.00;;;9.10;99.90;;;;;;4998131;28;20201;-75
2021/12/01 00:06:39;;;;;;;0.00;0.00;;;9.10;99.90;;;;;;5013975;28;20185;-75
2021/12/01 00:09:04;;;;;;;0.00;0.00;;;9.10;99.90;;;;;;4997585;28;20183;-75
2021/12/01 00:11:30;;;;;;;0.00;0.00;;;9.10;99.90;;;;;;5014831;28;20210;-75
2021/12/01 00:13:56;;;;;;;0.00;0.00;;;9.10;99.90;;;;;;5015904;28;20197;-75
2021/12/01 00:16:22;;;;;;;0.00;0.00;;;9.10;99.90;;;;;;4997484;28;20217;-75
2021/12/01 00:18:48;;;;;;;0.00;0.00;;;9.10;99.90;;;;;;5015416;28;20210;-75
2021/12/01 00:21:13;;;;;;;0.00;0.00;;;9.10;99.90;;;;;;5015751;28;20209;-76
2021/12/01 00:23:39;;;;;;;0.10;0.10;;;9.10;99.90;;;;;;4997277;28;20189;-75
2021/12/01 00:26:05;;;;;;;0.00;0.00;;;9.10;99.90;;;;;;4996768;28;20190;-75
2021/12/01 00:28:31;;;;;;;0.00;0.00;;;9.10;99.90;;;;;;5014621;28;20213;-76
2021/12/01 00:30:57;;;;;;;0.17;0.17;;;9.20;99.90;;;;;;5014788;28;20652;-76
2021/12/01 00:33:22;;;;;;;0.00;0.00;;;9.10;99.90;;;;;;5014076;28;20622;-76
2021/12/01 00:35:54;;;;;;;0.00;0.00;;;9.20;99.90;;;;;;4995419;28;20301;-74
2021/12/01 00:38:20;;;;;;;0.00;0.00;;;9.20;99.90;;;;;;5015758;28;20183;-75
2021/12/01 00:40:46;;;;;;;0.97;0.53;;;9.20;99.90;;;;;;5018027;28;20205;-76
2021/12/01 00:43:17;;;;;;;0.00;0.00;;;9.20;99.90;;;;;;4999889;28;20182;-75
2021/12/01 00:45:53;;;;;;;0.00;0.00;;;9.20;99.90;;;;;;5027285;28;20186;-74
2021/12/01 00:48:19;;;;;;;0.10;0.10;;;9.20;99.90;;;;;;5033298;28;20201;-75
2021/12/01 00:50:46;;;;;;;0.00;0.00;;;9.20;99.90;;;;;;5016315;28;20220;-73
2021/12/01 00:53:12;;;;;;;0.00;0.00;;;9.20;99.90;;;;;;5018089;28;20268;-74
2021/12/01 00:55:39;;;;;;;0.00;0.00;;;9.20;99.90;;;;;;5013746;28;20233;-73
2021/12/01 00:58:05;;;;;;;0.10;0.10;;;9.20;99.90;;;;;;5013183;28;20233;-74
2021/12/01 01:00:31;;;;;;;0.00;0.00;;;9.30;99.90;;;;;;4996368;28;20206;-74
2021/12/01 01:02:58;;;;;;;0.00;0.00;;;9.20;99.90;;;;;;5013805;28;20193;-74
2021/12/01 01:05:24;;;;;;;0.00;0.00;;;9.20;99.90;;;;;;5013040;28;20265;-74
2021/12/01 01:07:50;;;;;;;0.30;0.30;;;9.20;99.90;;;;;;5013782;28;20187;-75
2021/12/01 01:18:22;;;;;;;0.00;0.00;;;9.30;99.90;;;;;;5013653;28;20193;-75
2021/12/01 01:20:48;;;;;;;0.10;0.10;;;9.30;99.90;;;;;;5013007;28;20678;-75
2021/12/01 01:23:13;;;;;;;0.00;0.00;;;9.20;99.90;;;;;;5013118;28;20184;-75
2021/12/01 01:25:39;;;;;;;0.10;0.10;;;9.20;99.90;;;;;;5013155;28;20186;-75
2021/12/01 01:28:04;;;;;;;0.20;0.20;;;9.20;99.90;;;;;;5013061;28;20264;-74
2021/12/01 01:30:30;;;;;;;0.00;0.00;;;9.30;99.90;;;;;;5012638;28;20205;-73
2021/12/01 01:32:56;;;;;;;0.00;0.00;;;9.20;99.90;;;;;;5012124;28;20281;-73
2021/12/01 01:35:22;;;;;;;0.00;0.00;;;9.30;99.90;;;;;;5011970;28;20194;-72
2021/12/01 01:37:48;;;;;;;0.10;0.10;;;9.30;99.90;;;;;;5011499;28;20179;-72
2021/12/01 01:40:14;;;;;;;0.00;0.00;;;9.30;99.90;;;;;;4994243;28;20640;-74
2021/12/01 01:42:40;;;;;;;0.00;0.00;;;9.30;99.90;;;;;;5012237;28;20268;-73
2021/12/01 01:45:06;;;;;;;1.40;0.93;;;9.30;99.90;;;;;;5016487;28;20607;-74
2021/12/01 01:47:32;;;;;;;0.37;0.37;;;9.20;99.90;;;;;;5031683;28;20276;-74
2021/12/01 01:50:16;;;;;;;0.10;0.10;;;9.20;99.90;;;;;;5031975;28;20292;-75
2021/12/01 01:52:42;;;;;;;0.00;0.00;;;9.20;99.90;;;;;;5022106;28;20192;-75
2021/12/01 01:55:07;;;;;;;0.20;0.20;;;9.20;99.90;;;;;;5012222;28;20206;-74
2021/12/01 01:57:33;;;;;;;0.03;0.03;;;9.20;99.90;;;;;;5012589;28;20178;-74
2021/12/01 01:59:59;;;;;;;1.13;0.50;;;9.30;99.90;;;;;;4995180;28;20210;-75
2021/12/01 02:02:24;;;;;;;0.37;0.37;;;9.30;99.90;;;;;;5012793;28;20189;-75
2021/12/01 02:04:51;;;;;;;0.10;0.10;;;9.30;99.90;;;;;;5011239;28;20181;-75
2021/12/01 02:07:16;;;;;;;0.00;0.00;;;9.30;99.90;;;;;;5011793;28;20213;-74
2021/12/01 02:09:43;;;;;;;0.20;0.20;;;9.20;99.90;;;;;;5011729;28;20213;-74
2021/12/01 02:12:09;;;;;;;0.33;0.33;;;9.20;99.90;;;;;;5011774;28;20233;-74
2021/12/01 02:14:34;;;;;;;0.10;0.10;;;9.20;99.90;;;;;;4994354;28;20222;-74
2021/12/01 02:17:01;;;;;;;0.90;0.90;;;9.20;99.90;;;;;;5015136;28;20255;-74
2021/12/01 02:19:27;;;;;;;0.30;0.30;;;9.10;99.90;;;;;;5015676;28;20193;-74
2021/12/01 02:21:52;;;;;;;0.20;0.20;;;9.10;99.90;;;;;;5018321;28;20202;-73
2021/12/01 02:24:21;;;;;;;0.63;0.63;;;9.10;99.90;;;;;;5016132;28;20598;-74
2021/12/01 02:26:49;;;;;;;0.30;0.30;;;9.10;99.90;;;;;;5014942;28;20221;-74
2021/12/01 02:29:17;;;;;;;0.10;0.10;;;9.10;99.90;;;;;;5015361;28;20186;-74
2021/12/01 02:31:44;;;;;;;0.33;0.10;;;9.10;99.90;;;;;;5014974;28;20224;-74
2021/12/01 02:34:17;;;;;;;0.43;0.20;;;9.10;99.90;;;;;;5014935;28;20178;-73
2021/12/01 02:36:46;;;;;;;0.00;0.00;;;9.10;99.90;;;;;;5014552;28;20206;-73
2021/12/01 02:39:15;;;;;;;0.10;0.10;;;9.10;99.90;;;;;;5014747;28;20198;-73
2021/12/01 02:41:41;;;;;;;0.10;0.10;;;9.10;99.90;;;;;;5014721;28;20749;-73
2021/12/01 02:44:08;;;;;;;0.77;0.77;;;9.10;99.90;;;;;;4997059;28;20186;-73
2021/12/01 02:46:34;;;;;;;0.10;0.10;;;9.10;99.90;;;;;;5031182;28;20742;-73
2021/12/01 02:49:00;;;;;;;0.03;0.03;;;9.10;99.90;;;;;;5034650;28;20185;-73
2021/12/01 02:51:31;;;;;;;1.40;0.83;;;9.00;99.90;;;;;;5033079;28;20256;-73
2021/12/01 02:53:58;;;;;;;0.37;0.37;;;9.00;99.90;;;;;;5014789;28;20257;-73
2021/12/01 02:56:24;;;;;;;0.43;0.43;;;9.00;99.90;;;;;;5013916;28;20206;-72
2021/12/01 02:58:50;;;;;;;0.33;0.33;;;9.00;99.90;;;;;;5014441;28;20182;-73
2021/12/01 03:01:18;;;;;;;0.27;0.27;;;9.00;99.90;;;;;;5014364;28;20237;-73
2021/12/01 03:03:45;;;;;;;0.30;0.30;;;9.00;99.90;;;;;;5014018;28;20232;-73
2021/12/01 03:06:12;;;;;;;1.10;0.57;;;9.00;99.90;;;;;;5013460;28;20218;-73
2021/12/01 03:08:40;;;;;;;0.83;0.83;;;9.00;99.90;;;;;;5013895;28;20197;-73
2021/12/01 03:11:05;;;;;;;0.23;0.23;;;9.00;99.90;;;;;;4996540;28;20208;-74
2021/12/01 03:13:31;;;;;;;0.17;0.17;;;8.90;99.90;;;;;;5015019;28;20187;-74
2021/12/01 03:15:58;;;;;;;0.87;0.20;;;8.90;99.90;;;;;;5014556;28;20206;-74
2021/12/01 03:18:23;;;;;;;0.00;0.00;;;8.90;99.90;;;;;;5015108;28;20197;-74
2021/12/01 03:20:50;;;;;;;1.13;0.30;;;8.90;99.90;;;;;;5014762;28;20197;-74
2021/12/01 03:23:16;;;;;;;0.30;0.30;;;8.90;99.90;;;;;;4996449;28;20217;-73
2021/12/01 03:25:43;;;;;;;0.20;0.20;;;8.90;99.90;;;;;;5013672;28;20198;-74
2021/12/01 03:28:09;;;;;;;0.37;0.30;;;8.80;99.90;;;;;;5013443;28;20211;-74
2021/12/01 03:30:37;;;;;;;0.00;0.00;;;8.90;99.90;;;;;;5014151;28;20202;-74
2021/12/01 03:33:15;;;;;;;0.33;0.33;;;8.80;99.90;;;;;;5014322;28;20560;-74
2021/12/01 03:35:44;;;;;;;0.43;0.43;;;8.80;99.90;;;;;;5013807;28;20202;-74
2021/12/01 03:38:10;;;;;;;1.07;0.30;;;8.80;99.90;;;;;;4996389;28;20188;-74
2021/12/01 03:40:35;;;;;;;0.10;0.10;;;8.80;99.90;;;;;;5014870;28;20206;-74
2021/12/01 03:43:01;;;;;;;0.30;0.30;;;8.80;99.90;;;;;;5014116;28;20170;-73
2021/12/01 03:45:27;;;;;;;0.17;0.17;;;8.80;99.90;;;;;;5021771;28;20718;-74
2021/12/01 03:47:53;;;;;;;0.43;0.20;;;8.80;99.90;;;;;;5034272;28;20209;-73
2021/12/01 03:50:19;;;;;;;0.93;0.60;;;8.80;99.90;;;;;;5015591;28;20270;-74
2021/12/01 03:52:45;;;;;;;0.07;0.07;;;8.70;99.90;;;;;;5021522;28;20252;-74
2021/12/01 03:55:10;;;;;;;0.57;0.57;;;8.80;99.90;;;;;;5013658;28;20321;-74
2021/12/01 03:57:37;;;;;;;0.23;0.23;;;8.80;99.90;;;;;;4996315;28;20190;-74
2021/12/01 04:00:08;;;;;;;0.83;0.83;;;8.80;99.90;;;;;;5013439;28;20229;-74
2021/12/01 04:02:34;;;;;;;0.20;0.20;;;8.80;99.90;;;;;;5013797;28;20178;-73
2021/12/01 04:04:59;;;;;;;0.10;0.10;;;8.80;99.90;;;;;;5012884;28;20670;-73
2021/12/01 04:07:25;;;;;;;0.47;0.47;;;8.80;99.90;;;;;;5013352;28;20666;-75
2021/12/01 04:09:51;;;;;;;0.67;0.60;;;8.80;99.90;;;;;;5032851;28;20321;-73
2021/12/01 04:12:17;;;;;;;0.20;0.20;;;8.80;99.90;;;;;;5033565;28;20237;-74
2021/12/01 04:14:42;;;;;;;0.03;0.03;;;8.80;99.90;;;;;;5033026;28;20174;-74
2021/12/01 04:17:08;;;;;;;2.20;0.97;;;8.70;99.90;;;;;;5014885;28;20765;-74
2021/12/01 04:19:34;;;;;;;0.87;0.57;;;8.70;99.90;;;;;;5033024;28;20178;-73
2021/12/01 04:22:00;;;;;;;0.17;0.17;;;8.80;99.90;;;;;;5033471;28;20631;-73
2021/12/01 04:24:25;;;;;;;1.07;0.97;;;8.80;99.90;;;;;;5031824;28;20181;-74
2021/12/01 04:26:51;;;;;;;0.83;0.83;;;8.70;99.90;;;;;;5032457;28;20175;-73
2021/12/01 04:29:16;;;;;;;0.20;0.20;;;8.70;99.90;;;;;;5032903;28;20179;-74
2021/12/01 04:31:43;;;;;;;0.13;0.13;;;8.70;99.90;;;;;;5032677;28;20233;-74
2021/12/01 04:34:09;;;;;;;0.53;0.53;;;8.70;99.90;;;;;;5032898;28;20185;-73
2021/12/01 04:36:41;;;;;;;7.00;1.33;;;8.70;99.90;;;;;;5032472;28;20206;-73
2021/12/01 04:39:10;;;;;;;1.10;0.83;;;8.70;99.90;;;;;;5014292;28;20240;-73
2021/12/01 04:41:39;;;;;;;0.30;0.30;;;8.70;99.90;;;;;;5032356;28;20701;-72
2021/12/01 04:44:11;;;;;;;0.70;0.70;;;8.70;99.90;;;;;;5032523;28;20651;-73
2021/12/01 04:46:45;;;;;;;1.63;0.43;;;8.60;99.90;;;;;;5032211;28;20178;-73
2021/12/01 04:49:13;;;;;;;1.40;1.37;;;8.50;99.90;;;;;;5014849;28;20188;-73
2021/12/01 04:51:42;;;;;;;0.10;0.10;;;8.50;99.90;;;;;;5013081;28;20233;-74
2021/12/01 04:54:08;;;;;;;0.10;0.10;;;8.50;99.90;;;;;;5013449;28;20182;-74
2021/12/01 04:56:35;;;;;;;0.53;0.53;;;8.50;99.90;;;;;;5012722;28;20187;-74
2021/12/01 04:59:01;;;;;;;0.20;0.20;;;8.50;99.90;;;;;;5012990;28;20664;-74
2021/12/01 05:01:26;;;;;;;0.10;0.10;;;8.50;99.90;;;;;;5016214;28;20204;-75
2021/12/01 05:03:52;;;;;;;0.37;0.37;;;8.50;99.90;;;;;;5032300;28;20174;-74
2021/12/01 05:06:18;;;;;;;0.10;0.10;;;8.40;99.90;;;;;;5032402;28;20252;-74
2021/12/01 05:08:44;;;;;;;0.00;0.00;;;8.40;99.90;;;;;;5014511;28;20183;-74
2021/12/01 05:11:10;;;;;;;0.17;0.17;;;8.40;99.90;;;;;;5032435;28;20662;-74
2021/12/01 05:13:35;;;;;;;0.33;0.33;;;8.40;99.90;;;;;;5032651;28;20209;-76
2021/12/01 05:16:01;;;;;;;0.20;0.10;;;8.40;99.90;;;;;;5032286;28;20216;-76
2021/12/01 05:18:27;;;;;;;0.10;0.10;;;8.40;99.90;;;;;;5015058;28;20193;-77
2021/12/01 05:20:52;;;;;;;0.33;0.33;;;8.30;99.90;;;;;;5032837;28;20197;-76
2021/12/01 05:23:18;;;;;;;0.03;0.03;;;8.40;99.90;;;;;;5015211;28;20196;-74
2021/12/01 05:25:45;;;;;;;0.03;0.03;;;8.40;99.90;;;;;;5014077;28;20186;-74
2021/12/01 05:28:11;;;;;;;0.00;0.00;;;8.40;99.90;;;;;;5025840;28;20181;-76
2021/12/01 05:30:36;;;;;;;2.13;0.77;;;8.40;99.90;;;;;;5032786;28;20213;-76
2021/12/01 05:33:08;;;;;;;0.20;0.20;;;8.40;99.90;;;;;;5033437;28;20196;-74
2021/12/01 05:35:35;;;;;;;0.00;0.00;;;8.50;99.90;;;;;;5033089;28;20201;-75
2021/12/01 05:38:01;;;;;;;0.00;0.00;;;8.40;99.90;;;;;;5033337;28;20188;-76
2021/12/01 05:40:26;;;;;;;0.00;0.00;;;8.40;99.90;;;;;;5032530;28;20232;-76
2021/12/01 05:42:52;;;;;;;0.10;0.10;;;8.50;99.90;;;;;;5031806;28;20209;-76
2021/12/01 05:45:18;;;;;;;0.43;0.43;;;8.50;99.90;;;;;;5032353;28;20186;-76
2021/12/01 05:47:44;;;;;;;1.30;0.57;;;8.40;99.90;;;;;;5032502;28;20629;-76
2021/12/01 05:52:43;;;;;;;0.00;0.00;;;8.30;99.90;;;;;;5020735;28;20210;-75
2021/12/01 05:55:09;;;;;;;0.10;0.10;;;8.30;99.90;;;;;;5013983;28;20202;-75
2021/12/01 05:57:35;;;;;;;0.00;0.00;;;8.30;99.90;;;;;;5013787;28;20186;-75
2021/12/01 06:00:04;;;;;;;0.40;0.40;;;8.30;99.90;;;;;;5015345;28;20261;-75
2021/12/01 06:02:29;;;;;;;0.30;0.30;;;8.30;99.90;;;;;;4995797;28;20167;-75
2021/12/01 06:04:55;;;;;;;0.03;0.03;;;8.20;99.90;;;;;;4995312;28;20180;-75
2021/12/01 06:07:20;;;;;;;0.33;0.33;;;8.20;99.90;;;;;;4978162;28;20648;-76
2021/12/01 06:09:46;;;;;;;0.10;0.10;;;8.30;99.90;;;;;;4994499;28;20180;-74
2021/12/01 06:12:12;;;;;;;0.13;0.13;;;8.30;99.90;;;;;;4995379;28;20560;-74
2021/12/01 06:14:41;;;;;;;0.40;0.40;;;8.30;99.90;;;;;;4983155;28;20236;-75
2021/12/01 06:17:09;;;;;;;0.10;0.10;;;8.30;99.90;;;;;;5003181;28;20217;-75
2021/12/01 06:19:34;;;;;;;0.33;0.33;;;8.30;99.90;;;;;;4996011;28;20193;-75
2021/12/01 06:22:01;;;;;;;0.00;0.00;;;8.40;99.90;;;;;;4994437;28;20286;-75
2021/12/01 06:24:27;;;;;;;0.00;0.00;;;8.40;99.90;;;;;;4995452;28;20267;-74
2021/12/01 06:26:53;;;;;;;0.10;0.10;;;8.40;99.90;;;;;;4993965;28;20190;-75
2021/12/01 06:29:18;;;;;;;0.00;0.00;;;8.40;99.90;;;;;;4978437;28;20491;-75
2021/12/01 06:31:44;;;;;;;0.00;0.00;;;8.40;99.90;;;;;;4995340;28;20230;-75
2021/12/01 06:34:10;;;;;;;0.53;0.53;;;8.40;99.90;;;;;;4995445;28;20188;-74
2021/12/01 06:36:35;;;;;;;0.30;0.30;;;8.50;99.90;;;;;;4995232;28;20652;-74
2021/12/01 06:39:01;;;;;;;0.10;0.10;;;8.50;99.90;;;;;;4995107;28;20464;-74
2021/12/01 06:41:27;;;;;;;0.37;0.37;;;8.60;99.90;;;;;;4993482;28;20207;-74
2021/12/01 06:43:53;;;;;;;0.20;0.20;;;8.60;99.90;;;;;;4995063;28;20199;-74
2021/12/01 06:46:18;;;;;;;0.00;0.00;;;8.60;99.90;;;;;;5009151;28;20265;-74
2021/12/01 06:48:44;;;;;;;0.63;0.50;;;8.60;99.90;;;;;;4995838;28;20190;-75
2021/12/01 06:51:09;;;;;;;0.10;0.10;;;8.70;99.90;;;;;;4993306;28;20230;-74
2021/12/01 06:53:35;;;;;;;0.20;0.20;;;8.60;99.90;;;;;;4996345;28;20186;-74
2021/12/01 06:56:00;;;;;;;0.00;0.00;;;8.70;99.90;;;;;;4994204;28;20265;-74
2021/12/01 06:58:26;;;;;;;0.17;0.13;;;8.60;99.90;;;;;;4977234;28;20266;-75
2021/12/01 07:00:51;;;;;;;0.10;0.10;;;8.70;99.90;;;;;;4992902;28;20199;-75
2021/12/01 07:03:17;;;;;;;0.00;0.00;;;8.70;99.90;;;;;;4994934;28;20186;-75
2021/12/01 07:05:43;;;;;;;0.00;0.00;;;8.70;99.90;;;;;;4993495;28;20193;-75
2021/12/01 07:08:09;;;;;;;0.00;0.00;;;8.80;99.90;;;;;;5003800;28;20185;-75
2021/12/01 07:10:34;;;;;;;0.03;0.03;;;8.70;99.90;;;;;;5002347;28;20571;-75
2021/12/01 07:13:00;;;;;;;0.00;0.00;;;8.80;99.90;;;;;;4994703;28;20179;-75
2021/12/01 07:15:25;;;;;;;0.00;0.00;;;8.90;99.90;;;;;;4988916;28;20297;-75
2021/12/01 07:17:51;;;;;;;0.30;0.10;;;8.90;99.90;;;;;;5008750;28;20663;-79
2021/12/01 07:20:16;;;;;;;0.00;0.00;;;8.90;99.90;;;;;;4977004;28;20656;-76
2021/12/01 07:22:42;;;;;;;0.00;0.00;;;8.90;99.90;;;;;;4994475;28;20198;-74
2021/12/01 07:25:08;;;;;;;0.00;0.00;;;8.90;99.90;;;;;;4993259;28;20673;-75
2021/12/01 07:27:34;;;;;;;0.00;0.00;;;8.80;99.90;;;;;;4993971;28;20656;-75
2021/12/01 07:29:59;;;;;;;0.00;0.00;;;8.90;99.90;;;;;;4994540;28;20171;-75
2021/12/01 07:32:25;;;;;;;0.07;0.07;;;8.90;99.90;;;;;;4994470;28;20206;-75
2021/12/01 07:34:51;;;;;;;0.00;0.00;;;8.90;99.90;;;;;;4994088;28;20716;-75
2021/12/01 07:37:18;;;;;;;0.20;0.20;;;8.90;99.90;;;;;;5004228;28;20185;-75
2021/12/01 07:39:44;;;;;;;0.10;0.10;;;8.90;99.90;;;;;;4995934;28;20186;-75
2021/12/01 07:42:11;;;;;;;0.00;0.00;;;8.90;99.90;;;;;;5008863;28;20225;-76
2021/12/01 07:44:37;;;;;;;0.00;0.00;;;9.00;99.90;;;;;;4995975;28;20189;-76
2021/12/01 07:47:03;;;;;;;0.00;0.00;;;9.00;99.90;;;;;;5008303;28;20183;-76
2021/12/01 07:49:29;;;;;;;0.00;0.00;;;9.00;99.90;;;;;;4976460;28;20190;-76
2021/12/01 07:51:54;;;;;;;0.20;0.20;;;9.00;99.90;;;;;;4977224;28;20229;-76
2021/12/01 07:54:20;;;;;;;0.00;0.00;;;9.00;99.90;;;;;;4994390;28;20201;-76
2021/12/01 07:56:47;;;;;;;0.10;0.10;;;9.00;99.90;;;;;;4993420;28;20207;-76
2021/12/01 07:59:15;;;;;;;0.00;0.00;;;9.00;99.90;;;;;;4994976;28;20185;-76
2021/12/01 08:01:42;;;;;;;0.10;0.10;;;9.00;99.90;;;;;;4993622;28;20204;-76
2021/12/01 08:04:09;;;;;;;0.00;0.00;;;9.00;99.90;;;;;;5005715;28;20178;-76
2021/12/01 08:06:35;;;;;;;0.00;0.00;;;9.00;99.90;;;;;;4982172;28;20194;-75
2021/12/01 08:09:02;;;;;;;0.23;0.23;;;9.10;99.90;;;;;;4999372;28;20194;-76
2021/12/01 08:11:28;;;;;;;0.00;0.00;;;9.10;99.90;;;;;;4993462;28;20211;-76
2021/12/01 08:13:55;;;;;;;0.10;0.10;;;9.10;99.90;;;;;;4993048;28;20249;-76
2021/12/01 08:16:21;;;;;;;0.00;0.00;;;9.20;99.90;;;;;;4993369;28;20267;-76
2021/12/01 08:18:51;;;;;;;0.03;0.03;;;9.20;99.90;;;;;;4993523;28;20183;-76
2021/12/01 08:21:17;;;;;;;0.10;0.10;;;9.20;99.90;;;;;;4979410;28;20338;-76
2021/12/01 08:23:43;;;;;;;0.10;0.10;;;9.20;99.90;;;;;;5006494;28;20253;-76
2021/12/01 08:26:09;;;;;;;0.40;0.40;;;9.20;99.90;;;;;;5012878;28;20277;-76
2021/12/01 08:28:34;;;;;;;0.10;0.10;;;9.30;99.90;;;;;;5011306;28;20182;-76
2021/12/01 08:31:00;;;;;;;0.00;0.00;;;9.30;99.90;;;;;;5012763;28;20206;-76
2021/12/01 08:33:26;;;;;;;0.00;0.00;;;9.30;99.90;;;;;;5012366;28;20646;-76
2021/12/01 08:35:51;;;;;;;0.00;0.00;;;9.30;99.90;;;;;;5012614;28;20210;-76
2021/12/01 08:38:17;;;;;;;0.10;0.10;;;9.30;99.90;;;;;;5012916;28;20186;-75
2021/12/01 08:40:43;;;;;;;0.00;0.00;;;9.20;99.90;;;;;;5012659;28;20232;-76
2021/12/01 08:43:08;;;;;;;0.50;0.47;;;9.10;99.90;;;;;;5012849;28;20193;-76
2021/12/01 08:45:34;;;;;;;0.00;0.00;;;9.00;99.90;;;;;;5011186;28;20691;-76
2021/12/01 08:48:03;;;;;;;0.20;0.20;;;9.00;99.90;;;;;;4999501;28;20679;-77
2021/12/01 08:50:29;;;;;;;0.10;0.10;;;9.00;99.90;;;;;;4998870;28;20195;-76
2021/12/01 08:52:55;;;;;;;0.00;0.00;;;9.00;99.90;;;;;;5013992;28;20185;-76
2021/12/01 08:55:23;;;;;;;0.00;0.00;;;9.00;99.90;;;;;;5012412;28;20695;-76
2021/12/01 08:57:50;;;;;;;0.10;0.10;;;9.00;99.90;;;;;;5010899;28;20228;-76
2021/12/01 09:00:18;;;;;;;0.00;0.00;;;9.10;99.90;;;;;;5011252;28;20178;-76
2021/12/01 09:02:44;;;;;;;0.10;0.10;;;9.00;99.90;;;;;;5012812;28;20179;-76
2021/12/01 09:05:09;;;;;;;0.00;0.00;;;9.00;99.90;;;;;;5012886;28;20189;-76
2021/12/01 09:07:35;;;;;;;0.00;0.00;;;8.90;99.90;;;;;;5012132;28;20182;-76
2021/12/01 09:10:00;;;;;;;0.10;0.10;;;8.80;99.90;;;;;;4994375;28;20179;-76
2021/12/01 09:12:26;;;;;;;0.30;0.20;;;8.70;99.90;;;;;;5012009;28;20329;-77
2021/12/01 09:14:54;;;;;;;0.00;0.00;;;8.70;99.90;;;;;;5011952;28;20236;-77
2021/12/01 09:17:20;;;;;;;0.00;0.00;;;8.60;99.90;;;;;;5014939;28;20213;-77
2021/12/01 09:19:46;;;;;;;0.00;0.00;;;8.50;99.90;;;;;;5003212;28;20178;-76
2021/12/01 09:22:12;;;;;;;0.10;0.10;;;8.60;99.90;;;;;;5002281;28;20272;-77
2021/12/01 09:24:39;;;;;;;0.10;0.10;;;8.60;99.90;;;;;;5006032;28;20190;-77
2021/12/01 09:27:05;;;;;;;0.00;0.00;;;8.60;99.90;;;;;;5007337;28;20189;-77
2021/12/01 09:29:30;;;;;;;0.00;0.00;;;8.60;99.90;;;;;;5011644;28;20200;-76
2021/12/01 09:31:58;;;;;;;0.00;0.00;;;8.60;99.90;;;;;;4999587;28;20301;-76
2021/12/01 09:34:23;;;;;;;0.00;0.00;;;8.60;99.90;;;;;;4991862;28;20569;-77
2021/12/01 09:36:49;;;;;;;0.00;0.00;;;8.50;99.90;;;;;;4997237;28;20217;-76
2021/12/01 09:39:15;;;;;;;0.00;0.00;;;8.50;99.90;;;;;;4992072;28;20182;-76
2021/12/01 09:41:41;;;;;;;0.00;0.00;;;8.50;99.90;;;;;;5000369;28;20204;-77
2021/12/01 09:44:07;;;;;;;0.00;0.00;;;8.40;99.90;;;;;;5004931;28;20903;-77
2021/12/01 09:46:33;;;;;;;0.00;0.00;;;8.40;99.90;;;;;;4994669;28;20300;-76
2021/12/01 09:48:59;;;;;;;0.00;0.00;;;8.40;99.90;;;;;;5005718;28;20213;-77
2021/12/01 09:51:26;;;;;;;0.00;0.00;;;8.40;99.90;;;;;;5002862;28;20215;-77
2021/12/01 09:53:53;;;;;;;0.00;0.00;;;8.40;99.90;;;;;;5006815;28;20479;-76
2021/12/01 09:56:19;;;;;;;0.00;0.00;;;8.50;99.90;;;;;;4998120;28;20214;-76
2021/12/01 09:58:46;;;;;;;0.00;0.00;;;8.50;99.90;;;;;;5004162;28;20604;-77
2021/12/01 10:01:17;;;;;;;0.00;0.00;;;8.50;99.90;;;;;;4991655;28;20209;-77
2021/12/01 10:03:44;;;;;;;0.00;0.00;;;8.60;99.90;;;;;;4994396;28;20183;-77
2021/12/01 10:06:16;;;;;;;0.10;0.10;;;8.60;99.90;;;;;;5001486;28;20182;-77
2021/12/01 10:08:49;;;;;;;0.77;0.50;;;8.70;99.90;;;;;;5004606;28;20193;-77
2021/12/01 10:11:22;;;;;;;0.00;0.00;;;8.80;99.90;;;;;;5007276;28;20210;-77
2021/12/01 10:13:54;;;;;;;0.10;0.10;;;8.90;99.90;;;;;;4976697;28;20206;-77
2021/12/01 10:16:22;;;;;;;1.17;0.53;;;9.00;99.90;;;;;;4992452;28;20202;-77
2021/12/01 10:18:53;;;;;;;0.00;0.00;;;9.00;99.90;;;;;;4998339;28;20263;-77
2021/12/01 10:21:40;;;;;;;0.00;0.00;;;9.00;99.90;;;;;;5000797;28;20202;-77
2021/12/01 10:24:10;;;;;;;0.00;0.00;;;9.10;99.90;;;;;;4991616;28;20183;-77
2021/12/01 10:26:42;;;;;;;0.00;0.00;;;9.10;99.90;;;;;;4991421;28;20183;-77
2021/12/01 10:29:11;;;;;;;0.00;0.00;;;9.20;99.90;;;;;;4974121;28;20281;-77
2021/12/01 10:31:39;;;;;;;0.00;0.00;;;9.30;99.90;;;;;;4991164;28;20213;-77
2021/12/01 10:34:16;;;;;;;0.10;0.10;;;9.30;99.90;;;;;;4991638;28;20186;-77
2021/12/01 10:36:43;;;;;;;0.00;0.00;;;9.40;99.90;;;;;;4975677;28;20211;-77
2021/12/01 10:39:09;;;;;;;0.10;0.10;;;9.40;99.90;;;;;;4995271;28;20183;-77
2021/12/01 10:41:36;;;;;;;0.00;0.00;;;9.50;99.90;;;;;;4995239;28;20207;-77
2021/12/01 10:44:14;;;;;;;0.00;0.00;;;9.50;99.90;;;;;;4978146;28;20179;-77
2021/12/01 10:46:46;;;;;;;0.20;0.20;;;9.50;99.90;;;;;;4992540;28;20186;-77
2021/12/01 10:49:12;;;;;;;0.00;0.00;;;9.60;99.90;;;;;;5009144;28;20189;-77
2021/12/01 10:51:40;;;;;;;0.00;0.00;;;9.70;99.90;;;;;;4984341;28;20230;-77
2021/12/01 10:54:14;;;;;;;0.10;0.10;;;9.70;99.90;;;;;;5005154;28;20231;-77
2021/12/01 10:56:40;;;;;;;0.00;0.00;;;9.70;99.90;;;;;;5011382;28;20213;-77
2021/12/01 10:59:10;;;;;;;0.00;0.00;;;9.80;99.90;;;;;;4986809;28;20190;-78
2021/12/01 11:01:37;;;;;;;0.00;0.00;;;9.80;99.90;;;;;;4994746;28;20683;-77
2021/12/01 11:04:03;;;;;;;0.00;0.00;;;9.80;99.90;;;;;;4995151;28;20667;-77
2021/12/01 11:06:33;;;;;;;0.00;0.00;;;9.80;99.90;;;;;;4994946;28;20179;-77
2021/12/01 11:08:59;;;;;;;0.10;0.10;;;9.80;99.90;;;;;;4977398;28;20206;-77
2021/12/01 11:11:39;;;;;;;0.00;0.00;;;9.90;99.90;;;;;;4994921;28;20700;-77
2021/12/01 11:14:14;;;;;;;0.00;0.00;;;9.80;99.90;;;;;;4994481;28;20541;-77
2021/12/01 11:16:41;;;;;;;0.00;0.00;;;9.70;99.90;;;;;;4976655;28;20210;-77
2021/12/01 11:19:08;;;;;;;0.00;0.00;;;9.80;99.90;;;;;;4994844;28;20389;-77
2021/12/01 11:21:37;;;;;;;0.00;0.00;;;9.80;99.90;;;;;;5001915;28;20248;-77
2021/12/01 11:24:09;;;;;;;0.00;0.00;;;9.80;99.90;;;;;;4994822;28;20665;-77
2021/12/01 11:26:37;;;;;;;0.10;0.10;;;9.80;99.90;;;;;;4994277;28;20658;-77
2021/12/01 11:29:06;;;;;;;0.03;0.03;;;9.80;99.90;;;;;;4996658;28;20187;-77
2021/12/01 11:31:35;;;;;;;0.50;0.50;;;9.80;99.90;;;;;;4994305;28;20211;-77
2021/12/01 11:34:08;;;;;;;0.10;0.10;;;9.70;99.90;;;;;;4994154;28;20180;-77
2021/12/01 11:36:45;;;;;;;0.00;0.00;;;9.60;99.90;;;;;;4993790;28;20199;-77
2021/12/01 11:39:18;;;;;;;0.00;0.00;;;9.50;99.90;;;;;;4976682;28;20186;-77
2021/12/01 11:41:46;;;;;;;0.00;0.00;;;9.40;99.90;;;;;;4994155;28;20210;-77
2021/12/01 11:44:13;;;;;;;0.00;0.00;;;9.40;99.90;;;;;;4976489;28;20633;-77
2021/12/01 11:46:39;;;;;;;0.00;0.00;;;9.30;99.90;;;;;;5007997;28;20220;-77
2021/12/01 11:49:10;;;;;;;0.20;0.20;;;9.30;99.90;;;;;;5004921;28;20186;-77
2021/12/01 11:51:40;;;;;;;0.00;0.00;;;9.20;99.90;;;;;;5018786;23;20246;-73
2021/12/01 11:54:20;;;;;;;0.00;0.00;;;9.10;99.90;;;;;;5013519;28;20609;-75
2021/12/01 11:56:53;;;;;;;0.00;0.00;;;9.10;99.90;;;;;;5023390;28;20663;-75
2021/12/01 11:59:22;;;;;;;0.00;0.00;;;9.00;99.90;;;;;;5022624;28;20182;-76
2021/12/01 12:01:49;;;;;;;0.10;0.10;;;9.10;99.90;;;;;;5032951;28;20197;-75
2021/12/01 12:04:20;;;;;;;0.00;0.00;;;9.10;99.90;;;;;;5034597;28;20555;-76
2021/12/01 12:06:47;;;;;;;0.10;0.10;;;9.00;99.90;;;;;;5015074;28;20227;-75
2021/12/01 12:09:18;;;;;;;0.00;0.00;;;9.00;99.90;;;;;;5015723;28;20272;-74
2021/12/01 12:12:05;;;;;;;0.00;0.00;;;8.90;99.90;;;;;;5025263;28;20194;-74
2021/12/01 12:14:35;;;;;;;0.00;0.00;;;8.90;99.90;;;;;;5020128;28;20543;-74
2021/12/01 12:17:07;;;;;;;0.10;0.10;;;8.80;99.90;;;;;;5025835;28;20201;-73
2021/12/01 12:19:53;;;;;;;0.17;0.17;;;8.80;99.90;;;;;;5025151;28;20180;-75
2021/12/01 12:22:49;;;;;;;0.17;0.17;;;8.70;99.90;;;;;;5018022;28;20634;-74
2021/12/01 12:25:43;;;;;;;2.00;1.70;;;8.70;99.90;;;;;;5022637;28;20188;-75
2021/12/01 12:28:19;;;;;;;0.10;0.10;;;8.70;99.90;;;;;;5013098;28;20239;-75
2021/12/01 12:30:45;;;;;;;0.07;0.07;;;8.70;99.90;;;;;;5012484;28;20178;-75
2021/12/01 12:33:22;;;;;;;0.10;0.10;;;8.70;99.90;;;;;;5012587;28;20202;-74
2021/12/01 12:35:51;;;;;;;0.10;0.10;;;8.70;99.90;;;;;;5012263;28;20202;-73
2021/12/01 12:38:18;;;;;;;0.27;0.27;;;8.60;99.90;;;;;;5012153;28;20174;-74
2021/12/01 12:40:45;;;;;;;0.07;0.07;;;8.40;99.90;;;;;;5012152;28;20618;-75
2021/12/01 12:43:23;;;;;;;0.50;0.50;;;8.40;99.90;;;;;;5025055;28;20674;-74
2021/12/01 12:46:16;;;;;;;2.30;1.07;;;8.40;99.90;;;;;;5021760;28;20176;-74
2021/12/01 12:48:48;;;;;;;0.40;0.40;;;8.40;99.90;;;;;;5012403;28;20182;-74
2021/12/01 12:51:25;;;;;;;0.73;0.73;;;8.40;99.90;;;;;;5012554;28;20178;-74
2021/12/01 12:54:04;;;;;;;0.47;0.47;;;8.50;99.90;;;;;;4998997;28;20212;-74
2021/12/01 12:56:32;;;;;;;0.30;0.30;;;8.50;99.90;;;;;;5011836;28;20194;-75
2021/12/01 12:59:24;;;;;;;1.60;0.70;;;8.50;99.90;;;;;;5019613;28;20210;-74
2021/12/01 13:01:54;;;;;;;0.47;0.47;;;8.50;99.90;;;;;;5012341;28;20196;-74
2021/12/01 13:05:02;;;;;;;0.33;0.33;;;8.50;99.90;;;;;;5012525;28;20229;-75
2021/12/01 13:07:44;;;;;;;0.37;0.37;;;8.40;99.90;;;;;;5011871;28;20689;-74
2021/12/01 13:10:26;;;;;;;0.40;0.40;;;8.40;99.90;;;;;;5013894;28;20638;-75
2021/12/01 13:12:56;;;;;;;1.37;0.70;;;8.40;99.90;;;;;;5000671;28;20615;-74